createdAt,value
2023-04-05T00:00:54.398Z,5.07
2023-04-05T00:05:56.094Z,5.30
2023-04-05T00:10:57.740Z,5.30
2023-04-05T00:16:01.296Z,5.47
2023-04-05T00:21:03.265Z,5.07
2023-04-05T00:26:04.932Z,4.97
2023-04-05T00:31:06.618Z,5.23
2023-04-05T00:36:21.080Z,5.07
2023-04-05T00:41:22.941Z,6.77
2023-04-05T00:46:24.675Z,6.63
2023-04-05T00:51:26.350Z,6.27
2023-04-05T00:56:28.999Z,6.30
2023-04-05T01:01:37.817Z,7.17
2023-04-05T01:07:13.105Z,7.40
2023-04-05T01:12:21.081Z,7.43
2023-04-05T01:17:28.395Z,6.60
2023-04-05T01:23:04.357Z,7.00
2023-04-05T01:28:34.196Z,7.97
2023-04-05T01:33:48.350Z,8.30
2023-04-05T01:38:51.013Z,8.80
2023-04-05T01:43:52.871Z,9.30
2023-04-05T01:48:54.735Z,9.70
2023-04-05T01:53:56.754Z,9.83
2023-04-05T01:58:58.646Z,9.97
2023-04-05T02:04:00.613Z,9.53
2023-04-05T02:09:02.502Z,9.10
2023-04-05T02:14:04.404Z,10.13
2023-04-05T02:19:07.025Z,9.00
2023-04-05T02:24:08.904Z,8.73
2023-04-05T02:29:10.931Z,9.17
2023-04-05T02:34:12.749Z,8.37
2023-04-05T02:39:14.547Z,9.43
2023-04-05T02:44:16.470Z,9.23
2023-04-05T02:49:18.245Z,8.97
2023-04-05T02:54:20.588Z,9.47
2023-04-05T02:59:23.170Z,9.20
2023-04-05T03:04:26.989Z,9.53
2023-04-05T03:09:34.884Z,8.87
2023-04-05T03:14:41.575Z,9.53
2023-04-05T03:19:46.455Z,10.00
2023-04-05T03:24:53.987Z,9.40
2023-04-05T03:29:57.225Z,8.83
2023-04-05T03:34:59.555Z,9.23
2023-04-05T03:40:02.310Z,9.53
2023-04-05T03:45:06.221Z,8.60
2023-04-05T03:50:09.111Z,9.87
2023-04-05T03:55:10.977Z,9.27
2023-04-05T04:00:17.842Z,9.82
2023-04-05T04:05:39.331Z,9.50
2023-04-05T04:10:42.681Z,9.13
2023-04-05T04:15:55.426Z,10.30
2023-04-05T04:21:07.103Z,8.80
2023-04-05T04:26:37.662Z,8.37
2023-04-05T04:32:07.087Z,8.43
2023-04-05T04:37:37.722Z,8.60
2023-04-05T04:43:01.745Z,8.57
2023-04-05T04:48:16.802Z,8.03
2023-04-05T04:53:28.441Z,8.68
2023-04-05T04:58:31.229Z,8.73
2023-04-05T05:03:40.403Z,9.10
2023-04-05T05:08:42.271Z,8.63
2023-04-05T05:13:44.836Z,9.02
2023-04-05T05:18:54.390Z,8.70
2023-04-05T05:23:59.103Z,9.35
2023-04-05T05:29:02.342Z,9.03
2023-04-05T05:34:06.755Z,9.75
2023-04-05T05:39:10.302Z,9.20
2023-04-05T05:44:12.125Z,8.75
2023-04-05T05:49:13.934Z,10.43
2023-04-05T05:54:16.053Z,10.80
2023-04-05T05:59:18.016Z,10.70
2023-04-05T06:04:20.036Z,10.00
2023-04-05T06:09:23.401Z,11.38
2023-04-05T06:14:25.663Z,10.65
2023-04-05T06:19:27.574Z,11.27
2023-04-05T06:24:31.981Z,12.20
2023-04-05T06:29:33.867Z,14.23
2023-04-05T06:34:35.730Z,15.15
2023-04-05T06:39:37.592Z,14.52
2023-04-05T06:44:39.407Z,17.38
2023-04-05T06:49:41.258Z,14.73
2023-04-05T06:54:43.068Z,15.13
2023-04-05T06:59:44.880Z,14.45
2023-04-05T07:04:47.508Z,13.60
2023-04-05T07:09:49.383Z,13.85
2023-04-05T07:14:51.240Z,13.27
2023-04-05T07:19:53.037Z,13.48
2023-04-05T07:24:55.656Z,14.35
2023-04-05T07:29:57.619Z,14.23
2023-04-05T07:34:59.430Z,14.85
2023-04-05T07:40:01.237Z,14.98
2023-04-05T07:45:03.411Z,14.80
2023-04-05T07:50:07.180Z,15.40
2023-04-05T07:55:10.077Z,15.13
2023-04-05T08:00:13.479Z,16.13
2023-04-05T08:05:15.898Z,14.90
2023-04-05T08:10:17.854Z,16.73
2023-04-05T08:15:19.731Z,15.77
2023-04-05T08:20:21.504Z,15.73
2023-04-05T08:25:23.324Z,15.60
2023-04-05T08:30:25.132Z,15.52
2023-04-05T08:35:27.049Z,16.83
2023-04-05T08:40:49.447Z,15.77
2023-04-05T08:45:52.841Z,16.08
2023-04-05T08:50:55.769Z,16.30
2023-04-05T08:56:00.774Z,16.20
2023-04-05T09:01:04.857Z,16.63
2023-04-05T09:06:10.258Z,16.02
2023-04-05T09:11:12.749Z,16.20
2023-04-05T09:16:19.010Z,16.40
2023-04-05T09:21:20.989Z,16.75
2023-04-05T09:26:26.389Z,17.73
2023-04-05T09:31:37.459Z,17.02
2023-04-05T09:36:45.864Z,17.13
2023-04-05T09:42:24.811Z,17.77
2023-04-05T09:47:31.375Z,16.75
2023-04-05T09:52:36.839Z,17.15
2023-04-05T09:57:40.519Z,17.05
2023-04-05T10:02:42.575Z,18.30
2023-04-05T10:07:45.133Z,18.38
2023-04-05T10:12:48.123Z,18.20
2023-04-05T10:18:00.893Z,18.17
2023-04-05T10:23:27.918Z,19.35
2023-04-05T10:28:43.365Z,17.88
2023-04-05T10:33:47.933Z,18.25
2023-04-05T10:39:04.395Z,19.65
2023-04-05T10:44:22.639Z,18.45
2023-04-05T10:49:37.766Z,18.75
2023-04-05T10:54:40.780Z,18.05
2023-04-05T10:59:45.331Z,18.55
2023-04-05T11:04:55.657Z,17.73
2023-04-05T11:10:06.024Z,18.70
2023-04-05T11:15:43.320Z,18.50
2023-04-05T11:21:05.609Z,19.10
2023-04-05T11:26:07.461Z,18.38
2023-04-05T11:31:20.574Z,17.92
2023-04-05T11:36:46.167Z,18.30
2023-04-05T11:42:07.299Z,18.30
2023-04-05T11:47:10.780Z,18.92
2023-04-05T11:52:31.459Z,18.55
2023-04-05T11:57:33.276Z,18.40
2023-04-05T12:02:35.385Z,18.42
2023-04-05T12:07:37.435Z,17.75
2023-04-05T12:12:44.662Z,18.50
2023-04-05T12:17:55.355Z,18.25
2023-04-05T12:22:57.797Z,18.17
2023-04-05T12:28:09.111Z,19.00
2023-04-05T12:33:10.982Z,19.95
2023-04-05T12:38:15.961Z,19.45
2023-04-05T12:43:20.111Z,19.27
2023-04-05T12:48:25.875Z,19.13
2023-04-05T12:53:28.827Z,18.88
2023-04-05T12:58:36.359Z,18.40
2023-04-05T13:03:38.202Z,19.90
2023-04-05T13:08:40.085Z,18.88
2023-04-05T13:13:41.903Z,18.67
2023-04-05T13:18:44.448Z,18.98
2023-04-05T13:23:46.286Z,19.40
2023-04-05T13:28:48.124Z,19.83
2023-04-05T13:33:50.075Z,19.33
2023-04-05T13:38:52.038Z,20.42
2023-04-05T13:43:53.889Z,19.98
2023-04-05T13:48:55.840Z,19.75
2023-04-05T13:53:58.131Z,20.10
2023-04-05T13:59:00.047Z,20.08
2023-04-05T14:04:02.141Z,20.50
2023-04-05T14:09:04.936Z,19.70
2023-04-05T14:14:06.904Z,19.92
2023-04-05T14:19:08.895Z,20.17
2023-04-05T14:24:10.875Z,20.15
2023-04-05T14:29:13.127Z,19.85
2023-04-05T14:34:15.167Z,19.33
2023-04-05T14:39:17.041Z,19.98
2023-04-05T14:44:18.926Z,19.90
2023-04-05T14:49:21.599Z,19.75
2023-04-05T14:54:23.452Z,19.20
2023-04-05T14:59:26.381Z,20.23
2023-04-05T15:04:29.017Z,18.88
2023-04-05T15:09:30.899Z,18.80
2023-04-05T15:14:32.792Z,19.50
2023-04-05T15:19:35.600Z,19.42
2023-04-05T15:24:38.206Z,19.48
2023-04-05T15:29:40.059Z,19.45
2023-04-05T15:34:41.985Z,18.85
2023-04-05T15:39:43.874Z,18.85
2023-04-05T15:44:45.832Z,19.73
2023-04-05T15:49:48.756Z,19.02
2023-04-05T15:54:50.639Z,19.38
2023-04-05T15:59:54.452Z,20.08
2023-04-05T16:04:56.345Z,20.08
2023-04-05T16:09:58.310Z,19.58
2023-04-05T16:15:00.211Z,19.48
2023-04-05T16:20:02.289Z,19.00
2023-04-05T16:25:04.706Z,19.05
2023-04-05T16:30:07.528Z,18.27
2023-04-05T16:35:09.657Z,19.73
2023-04-05T16:40:11.847Z,18.38
2023-04-05T16:45:13.868Z,19.88
2023-04-05T16:50:15.816Z,19.13
2023-04-05T16:55:17.753Z,19.83
2023-04-05T17:00:19.987Z,21.00
2023-04-05T17:05:21.836Z,20.52
2023-04-05T17:10:23.713Z,20.33
2023-04-05T17:15:26.383Z,20.00
2023-04-05T17:20:28.393Z,19.38
2023-04-05T17:25:31.399Z,19.80
2023-04-05T17:30:33.444Z,19.80
2023-04-05T17:35:35.536Z,19.90
2023-04-05T17:40:37.524Z,19.85
2023-04-05T17:45:39.596Z,19.58
2023-04-05T17:50:41.511Z,19.30
2023-04-05T17:55:43.807Z,19.00
2023-04-05T18:00:45.700Z,17.98
2023-04-05T18:05:54.917Z,18.00
2023-04-05T18:11:00.095Z,17.85
2023-04-05T18:16:02.154Z,17.73
2023-04-05T18:21:04.685Z,17.65
2023-04-05T18:26:07.916Z,17.75
2023-04-05T18:31:10.218Z,17.35
2023-04-05T18:36:12.986Z,16.52
2023-04-05T18:41:15.340Z,15.82
2023-04-05T18:46:18.901Z,15.00
2023-04-05T18:51:22.488Z,15.13
2023-04-05T18:56:24.484Z,13.70
2023-04-05T19:01:26.477Z,13.90
2023-04-05T19:06:28.412Z,13.55
2023-04-05T19:11:30.374Z,13.90
2023-04-05T19:16:32.298Z,31.40
2023-04-05T19:21:34.199Z,32.63
2023-04-05T19:26:36.392Z,34.17
2023-04-05T19:31:39.992Z,36.10
2023-04-05T19:36:41.959Z,21.70
2023-04-05T19:41:43.889Z,14.73
2023-04-05T19:46:46.107Z,11.93
2023-04-05T19:51:48.195Z,11.73
2023-04-05T19:56:50.073Z,18.73
2023-04-05T20:01:52.013Z,17.55
2023-04-05T20:06:56.500Z,10.27
2023-04-05T20:12:03.837Z,9.82
2023-04-05T20:17:06.421Z,10.98
2023-04-05T20:22:09.378Z,9.00
2023-04-05T20:27:12.327Z,8.93
2023-04-05T20:32:15.118Z,8.20
2023-04-05T20:37:17.019Z,8.23
2023-04-05T20:42:18.878Z,8.70
2023-04-05T20:47:20.807Z,8.03
2023-04-05T20:52:22.690Z,8.43
2023-04-05T20:57:24.573Z,8.63
2023-04-05T21:02:26.690Z,8.00
2023-04-05T21:07:28.633Z,8.20
2023-04-05T21:12:30.506Z,10.10
2023-04-05T21:17:33.821Z,13.10
2023-04-05T21:22:35.766Z,9.85
2023-04-05T21:27:37.636Z,9.40
2023-04-05T21:32:39.602Z,8.48
2023-04-05T21:37:41.484Z,9.23
2023-04-05T21:42:43.398Z,8.50
2023-04-05T21:47:45.273Z,8.35
2023-04-05T21:52:47.197Z,8.17
2023-04-05T21:57:49.041Z,8.10
2023-04-05T22:02:51.034Z,7.63
2023-04-05T22:07:52.921Z,8.10
2023-04-05T22:12:55.164Z,7.77
2023-04-05T22:17:57.061Z,8.75
2023-04-05T22:22:58.996Z,8.10
2023-04-05T22:28:01.136Z,8.48
2023-04-05T22:33:03.436Z,8.25
2023-04-05T22:38:05.416Z,8.43
2023-04-05T22:43:07.395Z,7.63
2023-04-05T22:48:09.266Z,7.90
2023-04-05T22:53:11.454Z,7.82
2023-04-05T22:58:13.831Z,8.02
2023-04-05T23:03:15.885Z,8.07
2023-04-05T23:08:17.979Z,8.20
2023-04-05T23:13:21.429Z,7.75
2023-04-05T23:18:23.333Z,7.25
2023-04-05T23:23:25.901Z,7.70
2023-04-05T23:28:27.780Z,7.90
2023-04-05T23:33:29.637Z,8.32
2023-04-05T23:38:31.673Z,8.05
2023-04-05T23:43:33.697Z,6.95
2023-04-05T23:48:35.657Z,7.13
2023-04-05T23:53:37.779Z,7.03
2023-04-05T23:58:42.312Z,6.78
